createdAt,value
2018-09-26T00:01:37.786Z,8.10
2018-09-26T00:04:13.724Z,8.10
2018-09-26T00:06:41.942Z,8.10
2018-09-26T00:09:11.675Z,8.10
2018-09-26T00:11:39.906Z,8.00
2018-09-26T00:14:08.364Z,8.00
2018-09-26T00:16:37.267Z,8.00
2018-09-26T00:19:05.452Z,7.90
2018-09-26T00:21:33.614Z,7.90
2018-09-26T00:24:01.802Z,7.80
2018-09-26T00:26:29.994Z,7.80
2018-09-26T00:28:58.191Z,7.80
2018-09-26T00:31:26.407Z,7.80
2018-09-26T00:33:54.644Z,7.80
2018-09-26T00:36:22.832Z,7.70
2018-09-26T00:38:51.022Z,7.80
2018-09-26T00:41:19.242Z,7.70
2018-09-26T00:43:47.512Z,7.70
2018-09-26T00:46:15.677Z,7.70
2018-09-26T00:48:43.919Z,7.70
2018-09-26T00:51:12.158Z,7.70
2018-09-26T00:53:40.352Z,7.60
2018-09-26T00:56:08.575Z,7.70
2018-09-26T00:58:36.740Z,7.70
2018-09-26T01:01:04.928Z,7.70
2018-09-26T01:03:33.112Z,7.70
2018-09-26T01:06:01.372Z,7.70
2018-09-26T01:08:29.629Z,7.60
2018-09-26T01:10:57.805Z,7.50
2018-09-26T01:13:25.999Z,7.50
2018-09-26T01:15:54.206Z,7.50
2018-09-26T01:18:22.392Z,7.50
2018-09-26T01:20:50.603Z,7.50
2018-09-26T01:23:18.808Z,7.50
2018-09-26T01:25:47.124Z,7.50
2018-09-26T01:28:15.366Z,7.50
2018-09-26T01:30:43.560Z,7.40
2018-09-26T01:33:11.738Z,7.40
2018-09-26T01:35:39.935Z,7.40
2018-09-26T01:38:08.108Z,7.40
2018-09-26T01:40:36.324Z,7.40
2018-09-26T01:43:04.538Z,7.30
2018-09-26T01:45:32.722Z,7.40
2018-09-26T01:48:00.917Z,7.30
2018-09-26T01:50:29.108Z,7.20
2018-09-26T01:52:57.303Z,7.20
2018-09-26T01:55:25.477Z,7.20
2018-09-26T01:57:53.682Z,7.40
2018-09-26T02:00:21.904Z,7.40
2018-09-26T02:02:50.097Z,7.40
2018-09-26T02:05:18.299Z,7.40
2018-09-26T02:07:46.539Z,7.30
2018-09-26T02:10:14.826Z,7.20
2018-09-26T02:12:43.015Z,7.10
2018-09-26T02:15:11.194Z,7.10
2018-09-26T02:17:39.388Z,7.10
2018-09-26T02:20:07.551Z,7.10
2018-09-26T02:22:35.896Z,7.10
2018-09-26T02:25:04.151Z,6.80
2018-09-26T02:27:32.370Z,6.80
2018-09-26T02:30:00.665Z,6.80
2018-09-26T02:32:28.892Z,6.90
2018-09-26T02:34:57.066Z,6.80
2018-09-26T02:37:25.264Z,6.80
2018-09-26T02:39:53.451Z,6.80
2018-09-26T02:42:21.722Z,6.80
2018-09-26T02:44:49.895Z,6.80
2018-09-26T02:47:18.080Z,6.80
2018-09-26T02:49:46.268Z,6.70
2018-09-26T02:52:14.480Z,6.70
2018-09-26T02:54:42.717Z,6.60
2018-09-26T02:57:10.921Z,6.60
2018-09-26T02:59:39.120Z,6.60
2018-09-26T03:02:07.311Z,6.60
2018-09-26T03:04:35.470Z,6.60
2018-09-26T03:07:03.665Z,6.60
2018-09-26T03:09:31.897Z,6.60
2018-09-26T03:12:00.100Z,6.70
2018-09-26T03:14:28.400Z,6.70
2018-09-26T03:16:56.624Z,6.60
2018-09-26T03:19:24.867Z,6.60
2018-09-26T03:21:53.053Z,6.60
2018-09-26T03:24:21.248Z,6.60
2018-09-26T03:26:49.465Z,6.60
2018-09-26T03:29:17.656Z,6.60
2018-09-26T03:31:45.832Z,6.70
2018-09-26T03:34:14.922Z,6.60
2018-09-26T03:36:43.123Z,6.70
2018-09-26T03:39:11.299Z,6.60
2018-09-26T03:41:39.463Z,6.70
2018-09-26T03:44:07.640Z,6.60
2018-09-26T03:46:35.890Z,6.60
2018-09-26T03:49:04.082Z,6.50
2018-09-26T03:51:32.268Z,6.60
2018-09-26T03:54:00.462Z,6.50
2018-09-26T03:56:28.627Z,6.50
2018-09-26T03:58:56.840Z,6.50
2018-09-26T04:01:25.136Z,6.50
2018-09-26T04:03:53.335Z,6.40
2018-09-26T04:06:21.525Z,6.50
2018-09-26T04:08:49.688Z,6.40
2018-09-26T04:11:17.929Z,6.40
2018-09-26T04:13:46.368Z,6.40
2018-09-26T04:16:14.572Z,6.40
2018-09-26T04:18:42.756Z,6.40
2018-09-26T04:21:10.922Z,6.40
2018-09-26T04:23:39.200Z,6.40
2018-09-26T04:26:07.497Z,6.30
2018-09-26T04:28:35.581Z,6.30
2018-09-26T04:31:03.821Z,6.30
2018-09-26T04:33:32.089Z,6.20
2018-09-26T04:36:00.249Z,6.30
2018-09-26T04:38:28.465Z,6.30
2018-09-26T04:40:56.687Z,6.20
2018-09-26T04:43:24.928Z,6.30
2018-09-26T04:45:53.053Z,6.30
2018-09-26T04:48:21.297Z,6.20
2018-09-26T04:50:49.572Z,6.30
2018-09-26T04:53:17.679Z,6.30
2018-09-26T04:55:45.887Z,6.30
2018-09-26T04:58:14.150Z,6.20
2018-09-26T05:00:42.274Z,6.20
2018-09-26T05:03:10.452Z,6.10
2018-09-26T05:05:38.659Z,6.10
2018-09-26T05:08:07.019Z,6.10
2018-09-26T05:10:35.182Z,6.10
2018-09-26T05:13:03.363Z,6.00
2018-09-26T05:15:31.583Z,6.00
2018-09-26T05:17:59.787Z,5.90
2018-09-26T05:20:28.040Z,6.00
2018-09-26T05:22:56.279Z,6.00
2018-09-26T05:25:24.448Z,6.00
2018-09-26T05:27:52.699Z,6.00
2018-09-26T05:30:20.911Z,6.00
2018-09-26T05:32:49.071Z,6.10
2018-09-26T05:35:17.336Z,6.00
2018-09-26T05:37:45.594Z,6.10
2018-09-26T05:40:13.796Z,6.10
2018-09-26T05:42:41.966Z,6.10
2018-09-26T05:45:10.165Z,6.10
2018-09-26T05:47:38.342Z,6.10
2018-09-26T05:52:34.571Z,6.10
2018-09-26T05:55:02.740Z,6.10
2018-09-26T05:57:30.911Z,6.10
2018-09-26T05:59:59.120Z,6.20
2018-09-26T06:02:27.401Z,6.20
2018-09-26T06:04:55.628Z,6.20
2018-09-26T06:07:23.806Z,6.40
2018-09-26T06:09:52.013Z,6.50
2018-09-26T06:12:20.323Z,6.50
2018-09-26T06:14:48.496Z,6.50
2018-09-26T06:17:16.771Z,6.60
2018-09-26T06:19:44.982Z,6.60
2018-09-26T06:22:13.188Z,6.60
2018-09-26T06:24:41.450Z,6.70
2018-09-26T06:27:09.636Z,6.70
2018-09-26T06:29:37.875Z,6.70
2018-09-26T06:32:06.254Z,6.80
2018-09-26T06:34:34.469Z,6.80
2018-09-26T06:37:02.775Z,7.10
2018-09-26T06:39:30.961Z,7.10
2018-09-26T06:41:59.168Z,7.20
2018-09-26T06:44:27.336Z,7.30
2018-09-26T06:46:55.596Z,7.50
2018-09-26T06:49:23.780Z,7.60
2018-09-26T06:51:51.980Z,7.70
2018-09-26T06:54:20.157Z,7.70
2018-09-26T06:56:48.408Z,7.80
2018-09-26T06:59:16.591Z,7.80
2018-09-26T07:01:44.778Z,7.80
2018-09-26T07:04:12.981Z,7.80
2018-09-26T07:06:41.209Z,7.80
2018-09-26T07:09:10.058Z,7.80
2018-09-26T07:11:38.487Z,7.90
2018-09-26T07:14:06.723Z,8.00
2018-09-26T07:16:35.161Z,8.10
2018-09-26T07:19:03.361Z,8.10
2018-09-26T07:21:31.574Z,8.20
2018-09-26T07:23:59.864Z,8.30
2018-09-26T07:26:28.036Z,8.30
2018-09-26T07:28:56.201Z,8.40
2018-09-26T07:31:24.446Z,8.50
2018-09-26T07:33:52.749Z,8.60
2018-09-26T07:36:20.941Z,8.70
2018-09-26T07:38:49.124Z,8.80
2018-09-26T07:41:17.300Z,8.80
2018-09-26T07:43:45.561Z,8.80
2018-09-26T07:46:13.782Z,9.00
2018-09-26T07:48:42.020Z,9.00
2018-09-26T07:51:10.218Z,9.10
2018-09-26T07:53:38.397Z,9.10
2018-09-26T07:56:06.628Z,9.10
2018-09-26T07:58:34.798Z,9.10
2018-09-26T08:01:02.992Z,9.10
2018-09-26T08:03:31.187Z,9.20
2018-09-26T08:05:59.407Z,9.40
2018-09-26T08:08:27.587Z,9.50
2018-09-26T08:10:55.772Z,9.60
2018-09-26T08:13:23.969Z,9.50
2018-09-26T08:15:52.192Z,9.70
2018-09-26T08:18:20.536Z,9.70
2018-09-26T08:20:48.663Z,9.80
2018-09-26T08:23:16.875Z,9.90
2018-09-26T08:25:45.251Z,9.90
2018-09-26T08:28:13.501Z,10.00
2018-09-26T08:30:41.696Z,10.00
2018-09-26T08:33:09.995Z,10.10
2018-09-26T08:35:38.158Z,10.20
2018-09-26T08:38:06.360Z,10.20
2018-09-26T08:40:34.639Z,10.30
2018-09-26T08:43:02.849Z,10.40
2018-09-26T08:45:31.065Z,10.40
2018-09-26T08:47:59.253Z,10.50
2018-09-26T08:50:27.393Z,10.60
2018-09-26T08:52:55.596Z,10.70
2018-09-26T08:55:23.967Z,10.70
2018-09-26T08:57:52.168Z,10.80
2018-09-26T09:00:25.718Z,10.90
2018-09-26T09:02:53.960Z,10.90
2018-09-26T09:05:22.190Z,10.90
2018-09-26T09:07:50.384Z,11.00
2018-09-26T09:10:18.566Z,11.00
2018-09-26T09:12:46.780Z,11.10
2018-09-26T09:15:14.980Z,11.10
2018-09-26T09:17:43.194Z,11.30
2018-09-26T09:20:11.769Z,11.30
2018-09-26T09:22:39.989Z,11.40
2018-09-26T09:25:08.252Z,11.60
2018-09-26T09:27:36.504Z,11.70
2018-09-26T09:30:04.607Z,11.80
2018-09-26T09:32:32.805Z,11.80
2018-09-26T09:35:01.004Z,11.90
2018-09-26T09:37:29.288Z,11.90
2018-09-26T09:39:57.459Z,12.20
2018-09-26T09:42:25.633Z,12.20
2018-09-26T09:44:53.868Z,12.30
2018-09-26T09:47:22.060Z,12.30
2018-09-26T09:49:50.271Z,12.50
2018-09-26T09:52:18.478Z,12.50
2018-09-26T09:54:46.629Z,12.50
2018-09-26T09:57:14.780Z,12.60
2018-09-26T09:59:43.200Z,12.70
2018-09-26T10:02:11.718Z,12.80
2018-09-26T10:04:39.836Z,12.90
2018-09-26T10:07:08.019Z,12.90
2018-09-26T10:09:36.238Z,13.00
2018-09-26T10:12:04.404Z,13.00
2018-09-26T10:14:32.850Z,13.00
2018-09-26T10:17:00.980Z,13.20
2018-09-26T10:19:29.149Z,13.20
2018-09-26T10:21:57.350Z,13.30
2018-09-26T10:24:25.544Z,13.40
2018-09-26T10:26:53.775Z,13.40
2018-09-26T10:29:22.004Z,13.50
2018-09-26T10:31:50.217Z,13.50
2018-09-26T10:34:18.418Z,13.40
2018-09-26T10:36:46.642Z,13.60
2018-09-26T10:39:14.842Z,13.70
2018-09-26T10:41:43.165Z,13.80
2018-09-26T10:44:11.340Z,13.80
2018-09-26T10:46:39.608Z,13.80
2018-09-26T10:49:07.827Z,13.80
2018-09-26T10:51:36.018Z,14.10
2018-09-26T10:54:04.216Z,14.10
2018-09-26T10:56:32.629Z,14.30
2018-09-26T10:59:00.761Z,14.50
2018-09-26T11:01:28.963Z,14.60
2018-09-26T11:03:57.200Z,14.60
2018-09-26T11:06:25.385Z,14.60
2018-09-26T11:08:53.620Z,14.80
2018-09-26T11:11:21.833Z,14.80
2018-09-26T11:13:50.049Z,14.90
2018-09-26T11:16:18.259Z,15.00
2018-09-26T11:18:46.591Z,14.80
2018-09-26T11:21:14.729Z,14.80
2018-09-26T11:23:43.093Z,14.90
2018-09-26T11:26:12.187Z,15.00
2018-09-26T11:28:40.358Z,15.10
2018-09-26T11:31:08.669Z,15.20
2018-09-26T11:33:37.790Z,15.20
2018-09-26T11:36:06.075Z,15.40
2018-09-26T11:38:34.689Z,15.40
2018-09-26T11:41:02.935Z,15.50
2018-09-26T11:43:31.129Z,15.60
2018-09-26T11:45:59.388Z,15.60
2018-09-26T11:48:27.562Z,15.70
2018-09-26T11:50:55.784Z,15.70
2018-09-26T11:53:24.005Z,15.80
2018-09-26T11:55:52.211Z,15.90
2018-09-26T11:58:20.388Z,16.00
2018-09-26T12:00:48.528Z,16.00
2018-09-26T12:03:16.703Z,16.20
2018-09-26T12:05:44.924Z,16.30
2018-09-26T12:08:13.178Z,16.30
2018-09-26T12:10:41.356Z,16.40
2018-09-26T12:13:09.608Z,16.60
2018-09-26T12:15:37.811Z,16.70
2018-09-26T12:18:06.039Z,16.70
2018-09-26T12:20:34.181Z,16.60
2018-09-26T12:23:02.412Z,16.60
2018-09-26T12:25:30.628Z,16.60
2018-09-26T12:27:58.865Z,16.60
2018-09-26T12:30:27.168Z,16.40
2018-09-26T12:32:55.556Z,16.40
2018-09-26T12:35:23.731Z,16.50
2018-09-26T12:37:51.992Z,16.60
2018-09-26T12:40:20.224Z,16.70
2018-09-26T12:42:48.515Z,16.80
2018-09-26T12:45:16.821Z,16.90
2018-09-26T12:47:45.072Z,16.90
2018-09-26T12:50:13.268Z,17.00
2018-09-26T12:52:41.448Z,17.00
2018-09-26T12:55:09.604Z,17.00
2018-09-26T12:57:38.345Z,16.90
2018-09-26T13:00:06.600Z,16.80
2018-09-26T13:02:34.736Z,17.00
2018-09-26T13:05:03.070Z,17.00
2018-09-26T13:07:31.244Z,17.20
2018-09-26T13:09:59.553Z,17.30
2018-09-26T13:12:27.764Z,17.40
2018-09-26T13:14:55.976Z,17.40
2018-09-26T13:17:24.184Z,17.50
2018-09-26T13:19:52.393Z,17.70
2018-09-26T13:22:20.649Z,17.70
2018-09-26T13:24:48.935Z,17.50
2018-09-26T13:27:17.691Z,17.50
2018-09-26T13:29:45.896Z,17.50
2018-09-26T13:32:14.550Z,17.50
2018-09-26T13:34:42.778Z,17.60
2018-09-26T13:37:11.006Z,17.70
2018-09-26T13:39:39.394Z,17.70
2018-09-26T13:42:07.764Z,17.70
2018-09-26T13:44:35.955Z,17.70
2018-09-26T13:47:04.264Z,17.60
2018-09-26T13:49:32.480Z,17.60
2018-09-26T13:52:00.693Z,17.60
2018-09-26T13:54:29.007Z,17.60
2018-09-26T13:56:57.190Z,17.70
2018-09-26T13:59:25.351Z,17.70
2018-09-26T14:01:53.524Z,17.60
2018-09-26T14:04:22.022Z,17.70
2018-09-26T14:06:50.248Z,17.70
2018-09-26T14:09:18.667Z,17.60
2018-09-26T14:11:46.970Z,17.60
2018-09-26T14:14:15.347Z,17.60
2018-09-26T14:16:43.713Z,17.70
2018-09-26T14:19:11.877Z,17.70
2018-09-26T14:21:40.128Z,17.70
2018-09-26T14:24:08.762Z,17.70
2018-09-26T14:26:37.425Z,17.80
2018-09-26T14:29:05.685Z,17.80
2018-09-26T14:31:33.876Z,17.70
2018-09-26T14:34:02.054Z,17.70
2018-09-26T14:36:30.218Z,17.70
2018-09-26T14:38:58.773Z,17.80
2018-09-26T14:41:27.189Z,17.80
2018-09-26T14:43:55.377Z,17.80
2018-09-26T14:46:23.578Z,17.70
2018-09-26T14:48:51.826Z,17.70
2018-09-26T14:51:20.132Z,18.00
2018-09-26T14:53:48.327Z,18.30
2018-09-26T14:56:16.636Z,18.50
2018-09-26T14:58:44.756Z,18.80
2018-09-26T15:01:12.921Z,18.80
2018-09-26T15:03:41.668Z,18.80
2018-09-26T15:06:09.994Z,19.00
2018-09-26T15:08:38.165Z,19.20
2018-09-26T15:11:06.631Z,19.30
2018-09-26T15:13:34.821Z,19.40
2018-09-26T15:16:03.004Z,19.70
2018-09-26T15:18:31.212Z,19.70
2018-09-26T15:20:59.400Z,20.30
2018-09-26T15:23:27.627Z,21.50
2018-09-26T15:25:55.802Z,22.40
2018-09-26T15:28:24.071Z,22.90
2018-09-26T15:30:52.177Z,23.30
2018-09-26T15:33:20.353Z,23.70
2018-09-26T15:35:48.546Z,23.80
2018-09-26T15:38:16.864Z,23.80
2018-09-26T15:40:45.079Z,24.20
2018-09-26T15:43:13.394Z,24.10
2018-09-26T15:45:41.555Z,24.10
2018-09-26T15:48:10.130Z,23.50
2018-09-26T15:50:38.324Z,22.20
2018-09-26T15:53:06.704Z,22.10
2018-09-26T15:55:35.024Z,20.90
2018-09-26T15:58:03.181Z,20.20
2018-09-26T16:00:31.462Z,19.50
2018-09-26T16:02:59.913Z,19.40
2018-09-26T16:05:28.624Z,19.00
2018-09-26T16:07:56.930Z,18.90
2018-09-26T16:10:25.613Z,18.70
2018-09-26T16:12:53.854Z,18.50
2018-09-26T16:15:22.009Z,18.50
2018-09-26T16:17:50.189Z,18.40
2018-09-26T16:20:18.399Z,18.20
2018-09-26T16:22:46.628Z,18.10
2018-09-26T16:25:14.905Z,18.10
2018-09-26T16:27:43.042Z,18.20
2018-09-26T16:30:11.502Z,18.20
2018-09-26T16:32:39.690Z,17.90
2018-09-26T16:35:08.182Z,17.90
2018-09-26T16:37:36.411Z,17.70
2018-09-26T16:40:04.712Z,17.50
2018-09-26T16:42:32.946Z,17.40
2018-09-26T16:45:02.357Z,17.30
2018-09-26T16:47:32.152Z,17.10
2018-09-26T16:50:01.595Z,17.10
2018-09-26T16:52:30.961Z,17.00
2018-09-26T16:54:59.398Z,19.40
2018-09-26T16:57:27.708Z,16.80
2018-09-26T16:59:56.371Z,16.80
2018-09-26T17:02:26.307Z,16.60
2018-09-26T17:04:55.481Z,16.60
2018-09-26T17:07:25.528Z,16.40
2018-09-26T17:09:53.753Z,16.40
2018-09-26T17:12:26.294Z,16.20
2018-09-26T17:14:54.571Z,16.10
2018-09-26T17:17:26.839Z,16.00
2018-09-26T17:19:59.137Z,16.00
2018-09-26T17:22:27.482Z,15.90
2018-09-26T17:24:55.629Z,15.70
2018-09-26T17:27:28.193Z,15.50
2018-09-26T17:29:56.456Z,15.50
2018-09-26T17:32:25.287Z,15.40
2018-09-26T17:34:53.448Z,15.40
2018-09-26T17:37:25.995Z,15.30
2018-09-26T17:39:56.211Z,15.30
2018-09-26T17:42:26.582Z,15.40
2018-09-26T17:44:56.333Z,15.50
2018-09-26T17:47:26.437Z,15.40
2018-09-26T17:49:56.973Z,15.40
2018-09-26T17:52:25.318Z,15.30
2018-09-26T17:54:58.768Z,15.20
2018-09-26T17:57:27.019Z,15.20
2018-09-26T17:59:56.063Z,15.10
2018-09-26T18:02:28.934Z,15.10
2018-09-26T18:04:57.221Z,15.00
2018-09-26T18:07:25.442Z,15.00
2018-09-26T18:09:53.793Z,15.00
2018-09-26T18:12:22.101Z,15.00
2018-09-26T18:14:50.385Z,14.90
2018-09-26T18:17:20.743Z,14.90
2018-09-26T18:19:49.202Z,14.80
2018-09-26T18:22:17.433Z,14.80
2018-09-26T18:24:45.677Z,14.80
2018-09-26T18:29:41.929Z,14.60
2018-09-26T18:32:10.377Z,14.30
2018-09-26T18:34:49.563Z,14.10
2018-09-26T18:37:26.601Z,14.00
2018-09-26T18:39:54.988Z,13.80
2018-09-26T18:42:23.350Z,13.60
2018-09-26T18:44:57.618Z,13.60
2018-09-26T18:47:25.991Z,13.60
2018-09-26T18:49:54.381Z,13.50
2018-09-26T18:52:22.722Z,16.70
2018-09-26T18:54:56.906Z,16.20
2018-09-26T18:59:55.576Z,13.20
2018-09-26T19:02:23.919Z,13.10
2018-09-26T19:04:52.523Z,13.10
2018-09-26T19:07:20.833Z,13.00
2018-09-26T19:09:49.314Z,13.00
2018-09-26T19:12:17.715Z,12.80
2018-09-26T19:17:14.099Z,12.60
2018-09-26T19:19:42.462Z,12.50
2018-09-26T19:22:10.920Z,12.50
2018-09-26T19:24:39.887Z,13.10
2018-09-26T19:27:08.259Z,13.20
2018-09-26T19:29:36.647Z,13.10
2018-09-26T19:32:05.024Z,12.70
2018-09-26T19:34:33.441Z,13.10
2018-09-26T19:37:01.767Z,12.90
2018-09-26T19:39:30.079Z,12.70
2018-09-26T19:41:58.533Z,12.50
2018-09-26T19:44:27.898Z,12.60
2018-09-26T19:46:56.470Z,12.60
2018-09-26T19:49:25.135Z,12.60
2018-09-26T19:51:57.293Z,12.70
2018-09-26T19:54:26.245Z,12.70
2018-09-26T19:56:58.041Z,12.70
2018-09-26T19:59:26.485Z,12.70
2018-09-26T20:01:58.701Z,12.80
2018-09-26T20:04:27.033Z,12.80
2018-09-26T20:06:55.626Z,12.90
2018-09-26T20:09:24.075Z,12.90
2018-09-26T20:11:57.963Z,12.80
2018-09-26T20:14:26.293Z,12.80
2018-09-26T20:16:54.730Z,12.70
2018-09-26T20:19:29.725Z,12.60
2018-09-26T20:22:05.492Z,12.50
2018-09-26T20:25:03.839Z,12.30
2018-09-26T20:27:55.048Z,12.20
2018-09-26T20:30:23.476Z,12.00
2018-09-26T20:32:57.064Z,12.00
2018-09-26T20:35:26.407Z,11.80
2018-09-26T20:37:58.015Z,11.80
2018-09-26T20:42:54.484Z,11.70
2018-09-26T20:45:26.745Z,11.70
2018-09-26T20:47:55.188Z,11.60
2018-09-26T20:50:23.459Z,11.50
2018-09-26T20:52:51.826Z,11.50
2018-09-26T20:55:20.170Z,11.40
2018-09-26T20:57:48.584Z,11.40
2018-09-26T21:00:16.973Z,11.40
2018-09-26T21:02:47.246Z,11.30
2018-09-26T21:05:15.472Z,11.30
2018-09-26T21:07:43.726Z,11.20
2018-09-26T21:10:12.821Z,11.20
2018-09-26T21:13:06.501Z,11.10
2018-09-26T21:15:34.865Z,11.10
2018-09-26T21:18:03.165Z,11.10
2018-09-26T21:22:59.341Z,11.00
2018-09-26T21:25:27.502Z,11.00
2018-09-26T21:27:55.745Z,11.00
2018-09-26T21:30:23.956Z,11.00
2018-09-26T21:32:52.148Z,10.90
2018-09-26T21:35:20.341Z,10.90
2018-09-26T21:37:48.508Z,10.80
2018-09-26T21:42:44.792Z,10.80
2018-09-26T21:45:12.933Z,10.80
2018-09-26T21:47:41.160Z,10.80
2018-09-26T21:50:09.391Z,10.80
2018-09-26T21:52:37.573Z,10.80
2018-09-26T21:55:05.880Z,10.80
2018-09-26T21:57:34.105Z,10.70
2018-09-26T22:00:02.373Z,10.70
2018-09-26T22:02:30.579Z,10.70
2018-09-26T22:04:58.838Z,10.70
2018-09-26T22:07:27.023Z,10.70
2018-09-26T22:09:55.239Z,10.70
2018-09-26T22:12:23.432Z,10.60
2018-09-26T22:14:51.598Z,10.60
2018-09-26T22:17:19.776Z,10.60
2018-09-26T22:19:47.943Z,10.60
2018-09-26T22:22:16.169Z,10.50
2018-09-26T22:24:44.379Z,10.60
2018-09-26T22:27:12.588Z,10.50
2018-09-26T22:29:40.760Z,10.50
2018-09-26T22:32:09.018Z,10.40
2018-09-26T22:34:37.217Z,10.40
2018-09-26T22:37:05.441Z,10.40
2018-09-26T22:39:34.222Z,10.30
2018-09-26T22:42:02.466Z,10.40
2018-09-26T22:44:30.644Z,10.30
2018-09-26T22:46:58.909Z,10.30
2018-09-26T22:49:27.112Z,10.30
2018-09-26T22:51:55.623Z,10.30
2018-09-26T22:54:23.820Z,10.30
2018-09-26T22:56:52.043Z,10.20
2018-09-26T22:59:20.392Z,10.20
2018-09-26T23:01:48.581Z,10.20
2018-09-26T23:04:16.858Z,10.20
2018-09-26T23:06:46.777Z,10.20
2018-09-26T23:09:15.180Z,10.20
2018-09-26T23:11:43.397Z,10.20
2018-09-26T23:14:11.763Z,10.10
2018-09-26T23:16:39.953Z,10.10
2018-09-26T23:19:08.185Z,10.10
2018-09-26T23:21:36.407Z,10.00
2018-09-26T23:24:04.658Z,10.00
2018-09-26T23:26:32.874Z,10.00
2018-09-26T23:29:01.178Z,9.90
2018-09-26T23:31:29.397Z,9.90
2018-09-26T23:33:57.683Z,9.90
2018-09-26T23:36:25.840Z,9.90
2018-09-26T23:38:55.225Z,9.80
2018-09-26T23:41:23.436Z,9.80
2018-09-26T23:43:51.657Z,9.80
2018-09-26T23:46:19.880Z,9.70
2018-09-26T23:48:48.103Z,9.70
2018-09-26T23:51:16.306Z,9.60
2018-09-26T23:53:45.056Z,9.60
2018-09-26T23:56:13.413Z,9.60
2018-09-26T23:58:42.885Z,9.60
